Time;durP1;ratioP1;P1;durP2;ratioP2;P2;SDS_P1;SDS_P2;PMS_P1;PMS_P2;Temp;Humidity;BMP_temperature;BMP_pressure;BME280_temperature;BME280_humidity;BME280_pressure;Samples;Min_cycle;Max_cycle;Signal;HPM_P1;HPM_P2
2021/12/07 00:01:59;;;;;;;13.93;7.97;;;;;;;;;;143726;703;47021;-53
2021/12/07 00:04:27;;;;;;;14.75;7.55;;;;;;;;;;143727;569;47010;-53
2021/12/07 00:06:54;;;;;;;14.80;7.97;;;;;;;;;;143731;641;45020;-53
2021/12/07 00:09:22;;;;;;;11.35;7.28;;;;;;;;;;143729;602;46020;-52
2021/12/07 00:11:49;;;;;;;12.63;9.02;;;;;;;;;;143731;589;46023;-53
2021/12/07 00:14:26;;;;;;;15.27;9.65;;;;;;;;;;143726;642;47010;-53
2021/12/07 00:16:55;;;;;;;10.60;7.90;;;;;;;;;;143731;719;45907;-53
2021/12/07 00:19:22;;;;;;;11.27;7.80;;;;;;;;;;143731;594;46020;-53
2021/12/07 00:21:50;;;;;;;13.20;9.77;;;;;;;;;;143727;570;47020;-53
2021/12/07 00:24:17;;;;;;;15.30;9.32;;;;;;;;;;143727;600;47010;-53
2021/12/07 00:26:44;;;;;;;10.85;8.13;;;;;;;;;;143730;592;45906;-53
2021/12/07 00:29:14;;;;;;;15.35;10.45;;;;;;;;;;143730;569;46020;-53
2021/12/07 00:32:06;;;;;;;13.25;9.50;;;;;;;;;;143728;647;47021;-52
2021/12/07 00:37:09;;;;;;;11.90;8.82;;;;;;;;;;143729;565;47020;-52
2021/12/07 00:39:37;;;;;;;11.00;9.05;;;;;;;;;;143730;624;47010;-52
2021/12/07 00:42:04;;;;;;;10.65;7.82;;;;;;;;;;143729;567;47022;-52
2021/12/07 00:44:31;;;;;;;11.88;8.75;;;;;;;;;;143727;569;47010;-52
2021/12/07 00:46:58;;;;;;;13.43;9.50;;;;;;;;;;143728;644;45907;-52
2021/12/07 00:49:25;;;;;;;10.38;6.40;;;;;;;;;;143730;588;46020;-52
2021/12/07 00:51:53;;;;;;;12.65;9.02;;;;;;;;;;143727;647;47022;-52
2021/12/07 00:54:20;;;;;;;9.90;7.72;;;;;;;;;;143727;591;47010;-52
2021/12/07 00:56:47;;;;;;;10.98;8.32;;;;;;;;;;143730;575;46021;-52
2021/12/07 00:59:14;;;;;;;12.88;8.43;;;;;;;;;;143731;590;46020;-52
2021/12/07 01:01:41;;;;;;;13.73;8.95;;;;;;;;;;143726;570;47021;-52
2021/12/07 01:04:09;;;;;;;12.68;8.15;;;;;;;;;;143729;624;46010;-52
2021/12/07 01:06:59;;;;;;;11.27;8.27;;;;;;;;;;143731;623;45020;-53
2021/12/07 01:09:33;;;;;;;16.35;11.30;;;;;;;;;;143732;572;46011;-52
2021/12/07 01:25:50;;;;;;;;;;;;;;;;;;143731;981;47020;-53
2021/12/07 01:28:28;;;;;;;13.62;8.18;;;;;;;;;;143735;597;46020;-53
2021/12/07 01:37:07;;;;;;;11.63;8.35;;;;;;;;;;143729;569;46010;-53
2021/12/07 01:57:46;;;;;;;10.23;6.47;;;;;;;;;;143730;606;45023;-53
2021/12/07 02:01:16;;;;;;;9.95;5.40;;;;;;;;;;143729;572;46019;-53
2021/12/07 02:03:43;;;;;;;7.43;5.30;;;;;;;;;;143731;617;46012;-53
2021/12/07 02:06:12;;;;;;;10.20;5.72;;;;;;;;;;143725;578;47020;-53
2021/12/07 02:08:39;;;;;;;10.75;5.78;;;;;;;;;;143727;566;47013;-53
2021/12/07 02:11:06;;;;;;;8.63;5.80;;;;;;;;;;143730;595;45908;-54
2021/12/07 02:16:21;;;;;;;8.73;5.68;;;;;;;;;;143730;596;46013;-53
2021/12/07 02:18:48;;;;;;;10.35;5.43;;;;;;;;;;143728;595;47012;-53
2021/12/07 02:21:21;;;;;;;7.35;4.78;;;;;;;;;;143728;570;46018;-53
2021/12/07 02:23:49;;;;;;;5.15;3.95;;;;;;;;;;143732;617;46013;-53
2021/12/07 02:26:16;;;;;;;8.02;4.30;;;;;;;;;;143728;616;47018;-52
2021/12/07 02:28:43;;;;;;;5.45;4.05;;;;;;;;;;143726;598;47012;-53
2021/12/07 02:31:11;;;;;;;9.63;5.15;;;;;;;;;;143728;621;45912;-52
2021/12/07 02:33:39;;;;;;;9.52;4.93;;;;;;;;;;143730;570;47012;-53
2021/12/07 02:36:06;;;;;;;6.70;4.75;;;;;;;;;;143728;622;47018;-53
2021/12/07 02:38:33;;;;;;;7.82;4.47;;;;;;;;;;143725;596;47013;-53
2021/12/07 02:41:00;;;;;;;9.07;5.12;;;;;;;;;;143729;575;45911;-53
2021/12/07 02:43:27;;;;;;;8.40;5.68;;;;;;;;;;143731;572;46022;-53
2021/12/07 02:45:55;;;;;;;10.18;5.75;;;;;;;;;;143727;627;47019;-53
2021/12/07 02:48:23;;;;;;;15.35;6.55;;;;;;;;;;143727;580;47012;-53
2021/12/07 02:50:52;;;;;;;9.07;6.10;;;;;;;;;;143729;603;45911;-53
2021/12/07 02:53:26;;;;;;;9.65;6.55;;;;;;;;;;143731;572;46022;-52
2021/12/07 02:55:58;;;;;;;11.68;8.55;;;;;;;;;;143728;670;47018;-53
2021/12/07 02:58:25;;;;;;;16.42;9.25;;;;;;;;;;143727;585;47012;-53
2021/12/07 03:01:06;;;;;;;11.10;7.00;;;;;;;;;;143729;567;45912;-53
2021/12/07 03:03:38;;;;;;;12.13;7.62;;;;;;;;;;143734;699;46023;-53
2021/12/07 03:06:17;;;;;;;12.10;8.70;;;;;;;;;;143755;563;46020;-54
2021/12/07 03:28:12;;;;;;;12.50;7.20;;;;;;;;;;143757;604;46012;-53
2021/12/07 03:30:39;;;;;;;14.70;9.10;;;;;;;;;;143754;571;46013;-52
2021/12/07 03:33:07;;;;;;;14.60;8.95;;;;;;;;;;143757;588;45018;-53
2021/12/07 03:35:34;;;;;;;14.85;9.07;;;;;;;;;;143759;575;45022;-53
2021/12/07 03:38:01;;;;;;;13.52;8.73;;;;;;;;;;143757;613;46019;-53
2021/12/07 03:40:30;;;;;;;10.95;6.68;;;;;;;;;;143755;589;46012;-53
2021/12/07 03:42:57;;;;;;;8.57;5.68;;;;;;;;;;143756;647;45018;-53
2021/12/07 03:45:25;;;;;;;16.62;8.52;;;;;;;;;;143757;684;45022;-52
2021/12/07 03:47:53;;;;;;;12.02;6.87;;;;;;;;;;143754;573;46021;-52
2021/12/07 03:50:21;;;;;;;8.43;5.53;;;;;;;;;;143754;591;45919;-53
2021/12/07 03:52:49;;;;;;;8.63;5.93;;;;;;;;;;143754;635;45041;-53
2021/12/07 03:55:16;;;;;;;9.05;6.05;;;;;;;;;;143755;582;45023;-53
2021/12/07 03:57:44;;;;;;;12.23;7.47;;;;;;;;;;143754;572;46018;-53
2021/12/07 04:00:15;;;;;;;13.02;6.95;;;;;;;;;;143755;606;45919;-52
2021/12/07 04:02:43;;;;;;;11.85;7.35;;;;;;;;;;143754;624;45018;-53
2021/12/07 04:05:17;;;;;;;11.18;6.00;;;;;;;;;;143730;648;46022;-52
2021/12/07 04:07:44;;;;;;;14.87;7.78;;;;;;;;;;143724;597;47020;-52
2021/12/07 04:10:15;;;;;;;10.10;6.80;;;;;;;;;;143724;650;47012;-52
2021/12/07 04:12:42;;;;;;;10.77;6.03;;;;;;;;;;143728;639;45909;-53
2021/12/07 04:15:11;;;;;;;10.00;6.62;;;;;;;;;;143728;605;46022;-53
2021/12/07 04:17:39;;;;;;;11.77;6.90;;;;;;;;;;143724;601;47018;-54
2021/12/07 04:20:08;;;;;;;11.32;7.62;;;;;;;;;;143728;608;47012;-52
2021/12/07 04:22:35;;;;;;;11.73;7.60;;;;;;;;;;143727;602;45909;-53
2021/12/07 04:25:05;;;;;;;11.12;6.50;;;;;;;;;;143728;600;46023;-53
2021/12/07 04:27:37;;;;;;;7.47;5.50;;;;;;;;;;143725;645;47018;-52
2021/12/07 04:30:09;;;;;;;12.05;6.05;;;;;;;;;;143725;669;47012;-53
2021/12/07 04:32:36;;;;;;;11.98;5.90;;;;;;;;;;143729;565;45018;-53
2021/12/07 04:35:04;;;;;;;7.80;5.75;;;;;;;;;;143728;660;46022;-54
2021/12/07 04:37:31;;;;;;;11.10;5.62;;;;;;;;;;143725;641;47019;-53
2021/12/07 04:39:58;;;;;;;10.68;6.15;;;;;;;;;;143724;578;47012;-54
2021/12/07 04:42:26;;;;;;;13.73;6.65;;;;;;;;;;143729;597;45909;-54
2021/12/07 04:44:57;;;;;;;9.48;5.72;;;;;;;;;;143729;569;46013;-54
2021/12/07 04:47:36;;;;;;;11.68;6.47;;;;;;;;;;143725;612;47021;-54
2021/12/07 04:58:25;;;;;;;10.77;6.97;;;;;;;;;;143730;639;45022;-53
2021/12/07 05:00:52;;;;;;;16.67;8.40;;;;;;;;;;143725;636;47012;-53
2021/12/07 05:03:20;;;;;;;11.32;6.87;;;;;;;;;;143725;579;45911;-53
2021/12/07 05:05:50;;;;;;;12.73;7.35;;;;;;;;;;143728;577;46022;-54
2021/12/07 05:08:32;;;;;;;8.18;5.72;;;;;;;;;;143726;660;47019;-54
2021/12/07 05:16:53;;;;;;;19.55;8.88;;;;;;;;;;143727;643;47023;-53
2021/12/07 05:38:45;;;;;;;10.23;6.95;;;;;;;;;;143729;591;46023;-54
2021/12/07 05:41:11;;;;;;;11.98;7.72;;;;;;;;;;143724;564;47020;-54
2021/12/07 05:43:39;;;;;;;15.20;8.85;;;;;;;;;;143726;581;46013;-54
2021/12/07 05:46:06;;;;;;;14.45;8.48;;;;;;;;;;143726;589;46012;-54
2021/12/07 05:48:33;;;;;;;13.10;8.30;;;;;;;;;;143728;576;46022;-53
2021/12/07 05:51:00;;;;;;;13.75;8.68;;;;;;;;;;143725;573;47020;-54
2021/12/07 05:53:27;;;;;;;13.32;6.22;;;;;;;;;;143723;588;47012;-54
2021/12/07 05:55:55;;;;;;;16.83;7.35;;;;;;;;;;143727;642;45909;-53
2021/12/07 05:58:22;;;;;;;12.32;7.43;;;;;;;;;;143729;587;46022;-54
2021/12/07 06:00:49;;;;;;;12.27;7.50;;;;;;;;;;143726;639;47012;-54
2021/12/07 06:03:17;;;;;;;14.13;7.72;;;;;;;;;;143725;566;47012;-53
2021/12/07 06:05:44;;;;;;;11.35;6.93;;;;;;;;;;143727;628;45909;-54
2021/12/07 06:08:10;;;;;;;11.32;7.72;;;;;;;;;;143730;630;46023;-53
2021/12/07 06:10:38;;;;;;;10.68;6.75;;;;;;;;;;143725;571;47018;-53
2021/12/07 06:13:05;;;;;;;17.48;10.63;;;;;;;;;;143725;639;47013;-54
2021/12/07 06:15:35;;;;;;;15.82;9.07;;;;;;;;;;143727;569;46015;-54
2021/12/07 06:18:04;;;;;;;13.07;8.43;;;;;;;;;;143728;590;46020;-53
2021/12/07 06:20:31;;;;;;;15.20;7.90;;;;;;;;;;143722;637;47018;-54
2021/12/07 06:22:58;;;;;;;10.82;6.55;;;;;;;;;;143726;581;47012;-53
2021/12/07 06:25:25;;;;;;;11.93;7.47;;;;;;;;;;143724;595;46018;-54
2021/12/07 06:27:52;;;;;;;10.40;6.82;;;;;;;;;;143729;593;46022;-54
2021/12/07 06:30:19;;;;;;;15.07;6.82;;;;;;;;;;143727;605;46021;-54
2021/12/07 06:32:46;;;;;;;10.35;6.75;;;;;;;;;;143725;565;47012;-54
2021/12/07 06:35:13;;;;;;;11.38;7.03;;;;;;;;;;143728;644;45910;-54
2021/12/07 06:37:40;;;;;;;16.12;8.07;;;;;;;;;;143729;649;46023;-54
2021/12/07 06:40:10;;;;;;;14.52;8.13;;;;;;;;;;143724;603;47020;-53
2021/12/07 06:42:38;;;;;;;12.73;6.87;;;;;;;;;;143724;604;47012;-53
2021/12/07 06:45:08;;;;;;;13.07;8.48;;;;;;;;;;143725;587;46019;-53
2021/12/07 06:47:35;;;;;;;11.63;7.15;;;;;;;;;;143730;585;46022;-54
2021/12/07 06:50:05;;;;;;;16.92;10.77;;;;;;;;;;143725;596;47019;-54
2021/12/07 06:52:32;;;;;;;15.38;9.95;;;;;;;;;;143724;621;47012;-53
2021/12/07 06:54:59;;;;;;;40.15;25.08;;;;;;;;;;143728;612;45908;-54
2021/12/07 06:57:27;;;;;;;39.00;24.83;;;;;;;;;;143727;603;46022;-53
2021/12/07 06:59:54;;;;;;;32.60;19.90;;;;;;;;;;143725;641;47021;-54
2021/12/07 07:02:21;;;;;;;26.37;16.60;;;;;;;;;;143727;564;46012;-53
2021/12/07 07:04:48;;;;;;;28.77;17.42;;;;;;;;;;143727;579;45910;-54
2021/12/07 07:07:17;;;;;;;28.10;17.35;;;;;;;;;;143730;590;46012;-54
2021/12/07 07:09:44;;;;;;;24.08;16.65;;;;;;;;;;143726;565;47018;-54
2021/12/07 07:12:11;;;;;;;24.15;17.67;;;;;;;;;;143726;582;47013;-53
2021/12/07 07:14:38;;;;;;;32.50;20.80;;;;;;;;;;143728;581;45911;-54
2021/12/07 07:17:05;;;;;;;101.40;61.88;;;;;;;;;;143728;585;46012;-54
2021/12/07 07:19:32;;;;;;;57.80;38.38;;;;;;;;;;143724;576;47029;-54
2021/12/07 07:22:01;;;;;;;44.00;28.73;;;;;;;;;;143726;645;46013;-53
2021/12/07 07:24:31;;;;;;;32.15;21.58;;;;;;;;;;143729;585;45018;-53
2021/12/07 07:27:00;;;;;;;26.35;16.75;;;;;;;;;;143730;582;46022;-54
2021/12/07 07:29:27;;;;;;;36.83;24.55;;;;;;;;;;143723;578;47019;-54
2021/12/07 07:31:54;;;;;;;30.65;18.60;;;;;;;;;;143726;629;47012;-54
2021/12/07 07:34:21;;;;;;;25.85;18.42;;;;;;;;;;143725;583;45909;-54
2021/12/07 07:36:48;;;;;;;24.20;14.45;;;;;;;;;;143721;658;46023;-53
2021/12/07 07:39:16;;;;;;;24.30;17.15;;;;;;;;;;143728;593;46020;-52
2021/12/07 07:41:43;;;;;;;18.15;12.52;;;;;;;;;;143725;657;47012;-52
2021/12/07 07:44:10;;;;;;;22.05;13.73;;;;;;;;;;143727;578;45019;-53
2021/12/07 07:46:37;;;;;;;25.45;14.05;;;;;;;;;;143730;567;46022;-52
2021/12/07 07:49:05;;;;;;;18.02;12.35;;;;;;;;;;143724;583;47020;-53
2021/12/07 07:51:33;;;;;;;23.20;13.18;;;;;;;;;;143727;643;47013;-53
2021/12/07 07:54:00;;;;;;;15.65;9.27;;;;;;;;;;143730;569;45018;-53
2021/12/07 07:56:31;;;;;;;20.08;11.80;;;;;;;;;;143729;577;46022;-53
2021/12/07 07:58:58;;;;;;;46.47;27.15;;;;;;;;;;143724;593;47019;-53
2021/12/07 08:01:30;;;;;;;22.77;14.87;;;;;;;;;;143724;638;47012;-53
2021/12/07 08:03:58;;;;;;;18.90;11.82;;;;;;;;;;143729;640;45018;-53
2021/12/07 08:06:25;;;;;;;32.45;19.80;;;;;;;;;;143729;569;46022;-53
2021/12/07 08:08:52;;;;;;;20.27;11.70;;;;;;;;;;143726;566;47018;-53
2021/12/07 08:11:19;;;;;;;32.40;21.50;;;;;;;;;;143725;604;47013;-53
2021/12/07 08:13:46;;;;;;;29.73;19.73;;;;;;;;;;143729;587;45019;-53
2021/12/07 08:16:16;;;;;;;26.75;16.10;;;;;;;;;;143729;613;46022;-53
2021/12/07 08:18:46;;;;;;;19.08;12.82;;;;;;;;;;143724;572;47018;-53
2021/12/07 08:21:14;;;;;;;26.83;15.88;;;;;;;;;;143725;620;47012;-53
2021/12/07 08:23:43;;;;;;;18.80;13.57;;;;;;;;;;143724;589;46018;-52
2021/12/07 08:26:13;;;;;;;23.25;14.38;;;;;;;;;;143728;568;46022;-52
2021/12/07 08:28:41;;;;;;;23.20;15.15;;;;;;;;;;143726;600;47018;-52
2021/12/07 08:31:08;;;;;;;20.10;13.65;;;;;;;;;;143724;576;47012;-52
2021/12/07 08:33:35;;;;;;;20.45;14.02;;;;;;;;;;143730;585;45018;-52
2021/12/07 08:36:03;;;;;;;19.20;12.40;;;;;;;;;;143730;583;46012;-52
2021/12/07 08:38:30;;;;;;;22.13;13.80;;;;;;;;;;143724;570;47018;-52
2021/12/07 08:40:59;;;;;;;19.73;13.48;;;;;;;;;;143722;638;48012;-52
2021/12/07 08:43:28;;;;;;;19.40;12.43;;;;;;;;;;143728;569;45910;-52
2021/12/07 08:45:57;;;;;;;15.07;10.85;;;;;;;;;;143728;581;46022;-52
2021/12/07 08:48:25;;;;;;;15.25;10.98;;;;;;;;;;143725;585;47020;-52
2021/12/07 08:50:53;;;;;;;16.25;8.95;;;;;;;;;;143725;642;47012;-51
2021/12/07 08:53:22;;;;;;;12.37;8.68;;;;;;;;;;143727;617;45018;-52
2021/12/07 09:01:22;;;;;;;18.42;8.20;;;;;;;;;;143725;608;47010;-54
2021/12/07 09:03:50;;;;;;;10.90;7.25;;;;;;;;;;143728;568;45018;-52
2021/12/07 09:06:17;;;;;;;10.57;6.55;;;;;;;;;;143726;584;46023;-54
2021/12/07 09:08:45;;;;;;;18.83;7.53;;;;;;;;;;143725;588;47018;-52
2021/12/07 09:11:14;;;;;;;11.43;7.50;;;;;;;;;;143724;595;47013;-52
2021/12/07 09:13:41;;;;;;;20.95;13.00;;;;;;;;;;143727;576;45910;-51
2021/12/07 09:16:10;;;;;;;16.17;10.60;;;;;;;;;;143730;644;46022;-53
2021/12/07 09:18:37;;;;;;;14.77;8.60;;;;;;;;;;143726;600;47019;-54
2021/12/07 09:21:05;;;;;;;20.17;11.20;;;;;;;;;;143724;585;47012;-54
2021/12/07 09:23:33;;;;;;;8.63;5.78;;;;;;;;;;143728;699;45910;-54
2021/12/07 09:26:00;;;;;;;16.98;9.65;;;;;;;;;;143729;587;46022;-55
2021/12/07 09:28:27;;;;;;;15.70;10.20;;;;;;;;;;143725;569;47021;-54
2021/12/07 09:30:56;;;;;;;17.60;11.10;;;;;;;;;;143726;585;46012;-55
2021/12/07 09:33:25;;;;;;;17.10;8.65;;;;;;;;;;143727;637;46018;-55
2021/12/07 09:35:54;;;;;;;15.45;9.40;;;;;;;;;;143729;624;46023;-54
2021/12/07 09:38:22;;;;;;;11.70;6.57;;;;;;;;;;143725;613;47018;-55
2021/12/07 09:40:49;;;;;;;12.75;8.20;;;;;;;;;;143725;601;47012;-55
2021/12/07 09:43:17;;;;;;;7.35;5.53;;;;;;;;;;143725;564;46019;-55
2021/12/07 09:45:44;;;;;;;10.43;6.85;;;;;;;;;;143727;612;47012;-53
2021/12/07 09:48:12;;;;;;;9.25;6.15;;;;;;;;;;143725;611;47020;-52
2021/12/07 09:50:44;;;;;;;10.02;5.45;;;;;;;;;;143725;617;47012;-54
2021/12/07 09:53:13;;;;;;;6.60;4.22;;;;;;;;;;143729;633;45018;-54
2021/12/07 09:55:41;;;;;;;6.68;4.32;;;;;;;;;;143730;578;46022;-53
2021/12/07 09:58:08;;;;;;;8.50;4.85;;;;;;;;;;143726;574;47018;-52
2021/12/07 10:00:36;;;;;;;8.90;5.18;;;;;;;;;;143726;588;47012;-53
2021/12/07 10:03:04;;;;;;;10.38;6.70;;;;;;;;;;143727;592;45909;-52
2021/12/07 10:05:39;;;;;;;8.40;5.62;;;;;;;;;;143729;615;46023;-53
2021/12/07 10:08:07;;;;;;;34.72;24.90;;;;;;;;;;143726;591;47018;-53
2021/12/07 10:10:40;;;;;;;44.80;31.42;;;;;;;;;;143724;594;49013;-52
2021/12/07 10:13:09;;;;;;;35.78;24.17;;;;;;;;;;143727;569;45019;-52
2021/12/07 10:15:36;;;;;;;25.33;17.85;;;;;;;;;;143730;594;46012;-52
2021/12/07 10:18:11;;;;;;;20.80;14.02;;;;;;;;;;143724;566;47020;-52
2021/12/07 10:20:45;;;;;;;20.50;14.43;;;;;;;;;;143726;586;47012;-52
2021/12/07 10:23:37;;;;;;;16.92;11.45;;;;;;;;;;143728;734;45910;-52
2021/12/07 10:26:08;;;;;;;18.85;12.27;;;;;;;;;;143730;717;46022;-52
2021/12/07 10:28:47;;;;;;;11.90;7.12;;;;;;;;;;143726;678;47021;-52
2021/12/07 10:31:30;;;;;;;10.20;6.65;;;;;;;;;;143725;605;47012;-53
2021/12/07 10:34:01;;;;;;;19.77;9.07;;;;;;;;;;143727;623;46018;-53
2021/12/07 10:37:00;;;;;;;16.50;11.18;;;;;;;;;;143727;566;47031;-54
2021/12/07 10:39:34;;;;;;;15.07;11.63;;;;;;;;;;143725;624;47020;-56
2021/12/07 10:42:10;;;;;;;4.12;2.72;;;;;;;;;;143724;579;47012;-54
2021/12/07 10:44:40;;;;;;;5.85;2.90;;;;;;;;;;143728;625;45910;-53
2021/12/07 10:47:24;;;;;;;9.93;5.87;;;;;;;;;;143730;818;46022;-55
2021/12/07 10:49:58;;;;;;;10.43;7.03;;;;;;;;;;143722;614;48018;-55
2021/12/07 10:52:32;;;;;;;6.68;4.75;;;;;;;;;;143725;604;47012;-55
2021/12/07 10:55:13;;;;;;;39.22;30.62;;;;;;;;;;143727;792;46018;-54
2021/12/07 10:58:02;;;;;;;41.37;29.35;;;;;;;;;;143728;645;47012;-54
2021/12/07 11:00:36;;;;;;;31.05;22.98;;;;;;;;;;143725;573;47020;-54
2021/12/07 11:03:18;;;;;;;20.20;13.80;;;;;;;;;;143726;564;47012;-53
2021/12/07 11:05:54;;;;;;;14.27;10.13;;;;;;;;;;143728;594;46019;-53
2021/12/07 11:08:25;;;;;;;14.60;10.07;;;;;;;;;;143730;614;46024;-53
2021/12/07 11:10:53;;;;;;;10.65;7.28;;;;;;;;;;143726;576;46020;-52
2021/12/07 11:13:33;;;;;;;13.57;9.75;;;;;;;;;;143724;615;47012;-53
2021/12/07 11:16:06;;;;;;;13.02;9.55;;;;;;;;;;143727;573;45909;-53
2021/12/07 11:18:40;;;;;;;15.03;11.47;;;;;;;;;;143728;589;46023;-53
2021/12/07 11:21:14;;;;;;;16.45;11.73;;;;;;;;;;143724;588;47021;-53
2021/12/07 11:23:48;;;;;;;16.70;12.05;;;;;;;;;;143727;631;47012;-53
2021/12/07 11:31:57;;;;;;;13.40;8.65;;;;;;;;;;143726;609;47012;-52
2021/12/07 11:34:41;;;;;;;10.38;7.07;;;;;;;;;;143728;622;46032;-52
2021/12/07 11:37:13;;;;;;;13.73;10.27;;;;;;;;;;143729;605;46018;-52
2021/12/07 11:39:59;;;;;;;13.02;7.50;;;;;;;;;;143730;648;46022;-52
2021/12/07 11:42:29;;;;;;;15.52;11.07;;;;;;;;;;143725;702;47023;-52
2021/12/07 11:45:03;;;;;;;13.70;8.25;;;;;;;;;;143725;617;47012;-52
2021/12/07 11:47:36;;;;;;;39.53;26.50;;;;;;;;;;143732;570;45019;-52
2021/12/07 11:50:28;;;;;;;48.55;30.88;;;;;;;;;;143730;616;46023;-52
2021/12/07 11:52:59;;;;;;;21.35;13.62;;;;;;;;;;143725;605;47018;-52
2021/12/07 11:55:26;;;;;;;36.05;23.83;;;;;;;;;;143728;570;47013;-52
2021/12/07 11:57:54;;;;;;;31.65;21.85;;;;;;;;;;143729;612;46018;-52
2021/12/07 12:00:34;;;;;;;31.60;21.05;;;;;;;;;;143732;611;46012;-52
2021/12/07 12:03:04;;;;;;;19.62;13.82;;;;;;;;;;143728;615;47019;-52
2021/12/07 12:05:31;;;;;;;15.95;9.32;;;;;;;;;;143728;583;47012;-52
2021/12/07 12:07:59;;;;;;;19.48;13.48;;;;;;;;;;143730;593;45018;-54
2021/12/07 12:10:26;;;;;;;17.50;11.38;;;;;;;;;;143731;617;46022;-54
2021/12/07 12:13:07;;;;;;;18.73;12.63;;;;;;;;;;143726;593;47018;-52
2021/12/07 12:15:56;;;;;;;21.20;14.63;;;;;;;;;;143728;637;47012;-52
2021/12/07 12:18:54;;;;;;;18.90;10.25;;;;;;;;;;143731;591;45019;-54
2021/12/07 12:21:58;;;;;;;21.77;14.70;;;;;;;;;;143731;582;46014;-52
2021/12/07 12:24:53;;;;;;;10.50;6.12;;;;;;;;;;143727;569;47018;-52
2021/12/07 12:27:30;;;;;;;14.02;6.62;;;;;;;;;;143730;589;46012;-54
2021/12/07 12:29:59;;;;;;;15.93;8.32;;;;;;;;;;143729;604;45911;-51
2021/12/07 12:32:38;;;;;;;13.07;7.65;;;;;;;;;;143732;600;46022;-52
2021/12/07 12:35:09;;;;;;;11.68;6.65;;;;;;;;;;143727;569;47021;-53
2021/12/07 12:37:38;;;;;;;11.23;6.90;;;;;;;;;;143728;633;46012;-52
2021/12/07 12:40:10;;;;;;;17.77;10.52;;;;;;;;;;143729;585;45911;-52
2021/12/07 12:42:49;;;;;;;17.98;10.65;;;;;;;;;;143732;622;46023;-52
2021/12/07 12:45:29;;;;;;;6.30;5.00;;;;;;;;;;143724;605;47018;-52
2021/12/07 12:48:09;;;;;;;12.63;7.95;;;;;;;;;;143725;573;47013;-52
2021/12/07 12:50:56;;;;;;;10.88;4.78;;;;;;;;;;143728;635;45910;-52
2021/12/07 12:53:26;;;;;;;9.55;6.70;;;;;;;;;;143731;570;46014;-52
2021/12/07 12:56:00;;;;;;;15.32;10.10;;;;;;;;;;143727;569;47020;-52
2021/12/07 12:58:47;;;;;;;9.23;5.97;;;;;;;;;;143727;581;47012;-52
2021/12/07 13:01:22;;;;;;;5.60;3.40;;;;;;;;;;143730;593;45910;-52
2021/12/07 13:04:17;;;;;;;9.02;5.68;;;;;;;;;;143731;581;46013;-52
2021/12/07 13:06:53;;;;;;;4.62;2.90;;;;;;;;;;143724;571;48018;-54
2021/12/07 13:09:26;;;;;;;10.48;6.07;;;;;;;;;;143726;642;47012;-52
2021/12/07 13:12:19;;;;;;;11.35;4.72;;;;;;;;;;143729;565;46018;-51
2021/12/07 13:15:06;;;;;;;9.70;6.00;;;;;;;;;;143731;622;46014;-52
2021/12/07 13:17:44;;;;;;;15.10;8.35;;;;;;;;;;143726;592;47022;-52
2021/12/07 13:20:44;;;;;;;5.87;3.35;;;;;;;;;;143727;604;47012;-56
2021/12/07 13:23:13;;;;;;;5.45;3.72;;;;;;;;;;143728;579;46018;-56
2021/12/07 13:25:51;;;;;;;10.00;6.28;;;;;;;;;;143731;573;46023;-56
2021/12/07 13:28:35;;;;;;;8.43;4.93;;;;;;;;;;143726;574;47020;-56
2021/12/07 13:31:21;;;;;;;6.97;5.00;;;;;;;;;;143727;751;47012;-56
2021/12/07 13:33:53;;;;;;;10.30;6.35;;;;;;;;;;143730;732;45909;-56
2021/12/07 13:36:33;;;;;;;6.75;4.30;;;;;;;;;;143731;596;46022;-56
2021/12/07 13:39:33;;;;;;;6.55;3.92;;;;;;;;;;143726;643;47019;-56
2021/12/07 13:42:25;;;;;;;7.82;4.45;;;;;;;;;;143723;592;49012;-54
2021/12/07 13:45:09;;;;;;;5.12;3.00;;;;;;;;;;143731;569;45018;-56
2021/12/07 13:47:42;;;;;;;8.98;3.78;;;;;;;;;;143731;580;46022;-55
2021/12/07 13:50:16;;;;;;;11.38;4.55;;;;;;;;;;143726;579;47018;-56
2021/12/07 13:52:49;;;;;;;6.03;3.53;;;;;;;;;;143726;585;47012;-55
2021/12/07 13:55:20;;;;;;;12.73;5.43;;;;;;;;;;143727;566;45911;-55
2021/12/07 13:57:50;;;;;;;8.15;4.60;;;;;;;;;;143731;586;46022;-56
2021/12/07 14:00:23;;;;;;;9.05;4.20;;;;;;;;;;143726;570;47020;-55
2021/12/07 14:03:08;;;;;;;8.48;4.18;;;;;;;;;;143728;579;47012;-56
2021/12/07 14:05:37;;;;;;;4.87;3.70;;;;;;;;;;143756;626;45034;-57
2021/12/07 14:08:07;;;;;;;5.82;3.40;;;;;;;;;;143760;566;45022;-55
2021/12/07 14:10:42;;;;;;;3.55;2.65;;;;;;;;;;143755;593;46018;-56
2021/12/07 14:13:08;;;;;;;;;;;;;;;;;;143760;978;45921;-55
2021/12/07 14:15:41;;;;;;;2.92;2.08;;;;;;;;;;143761;565;45922;-55
2021/12/07 14:18:19;;;;;;;11.23;3.95;;;;;;;;;;143760;651;45023;-55
2021/12/07 14:20:55;;;;;;;8.60;3.75;;;;;;;;;;143755;569;46027;-56
2021/12/07 14:23:37;;;;;;;10.38;3.40;;;;;;;;;;143756;577;45919;-56
2021/12/07 14:26:14;;;;;;;4.97;3.05;;;;;;;;;;143756;605;45019;-57
2021/12/07 14:29:02;;;;;;;5.75;3.37;;;;;;;;;;143758;577;45022;-56
2021/12/07 14:31:43;;;;;;;6.37;3.45;;;;;;;;;;143756;588;46018;-56
2021/12/07 14:34:12;;;;;;;5.72;3.50;;;;;;;;;;143756;577;46010;-57
2021/12/07 14:36:48;;;;;;;6.60;3.67;;;;;;;;;;143755;658;45018;-57
2021/12/07 14:39:25;;;;;;;4.43;2.92;;;;;;;;;;143760;621;45023;-55
2021/12/07 14:42:01;;;;;;;5.97;2.80;;;;;;;;;;143757;579;46018;-56
2021/12/07 14:44:31;;;;;;;3.33;2.60;;;;;;;;;;143757;577;46010;-55
2021/12/07 14:47:04;;;;;;;6.78;3.28;;;;;;;;;;143758;569;45908;-54
2021/12/07 14:49:32;;;;;;;4.62;2.90;;;;;;;;;;143761;570;45010;-56
2021/12/07 14:51:59;;;;;;;6.15;2.67;;;;;;;;;;143757;582;46018;-56
2021/12/07 14:54:26;;;;;;;7.18;3.12;;;;;;;;;;143755;618;46010;-57
2021/12/07 14:56:54;;;;;;;4.62;3.00;;;;;;;;;;143756;587;45018;-56
2021/12/07 14:59:22;;;;;;;3.75;2.80;;;;;;;;;;143759;621;45022;-55
2021/12/07 15:01:52;;;;;;;4.82;2.62;;;;;;;;;;143753;602;46021;-55
2021/12/07 15:04:21;;;;;;;5.87;3.00;;;;;;;;;;143739;570;47010;-57
2021/12/07 15:06:52;;;;;;;3.40;2.62;;;;;;;;;;143730;595;45907;-57
2021/12/07 15:09:20;;;;;;;7.10;3.00;;;;;;;;;;143731;575;46023;-57
2021/12/07 15:11:49;;;;;;;5.40;3.35;;;;;;;;;;143727;642;47020;-58
2021/12/07 15:14:22;;;;;;;3.45;2.58;;;;;;;;;;143727;585;47010;-58
2021/12/07 15:16:53;;;;;;;4.80;2.75;;;;;;;;;;143727;647;46037;-59
2021/12/07 15:19:20;;;;;;;5.15;2.62;;;;;;;;;;143731;585;46020;-58
2021/12/07 15:21:48;;;;;;;2.50;2.30;;;;;;;;;;143727;654;47022;-57
2021/12/07 15:24:18;;;;;;;5.35;3.15;;;;;;;;;;143727;676;47010;-57
2021/12/07 15:26:47;;;;;;;3.03;2.53;;;;;;;;;;143728;667;46020;-57
2021/12/07 15:29:17;;;;;;;5.95;2.90;;;;;;;;;;143732;595;46010;-58
2021/12/07 15:31:58;;;;;;;4.20;2.80;;;;;;;;;;143728;598;47021;-58
2021/12/07 15:34:27;;;;;;;4.40;2.90;;;;;;;;;;143728;581;47010;-58
2021/12/07 15:37:05;;;;;;;3.80;2.75;;;;;;;;;;143727;570;46020;-57
2021/12/07 15:39:59;;;;;;;3.12;2.47;;;;;;;;;;143728;586;46021;-58
2021/12/07 15:42:36;;;;;;;5.25;3.20;;;;;;;;;;143727;569;47024;-58
2021/12/07 15:45:10;;;;;;;9.18;3.15;;;;;;;;;;143726;564;47010;-57
2021/12/07 15:47:40;;;;;;;7.25;3.37;;;;;;;;;;143730;592;45021;-57
2021/12/07 15:50:19;;;;;;;5.68;2.83;;;;;;;;;;143731;580;46020;-57
2021/12/07 15:52:49;;;;;;;2.97;1.70;;;;;;;;;;143728;620;46022;-58
2021/12/07 15:55:21;;;;;;;5.00;2.15;;;;;;;;;;143726;626;47010;-58
2021/12/07 15:57:55;;;;;;;4.00;2.67;;;;;;;;;;143730;620;45020;-57
2021/12/07 16:00:47;;;;;;;4.43;2.70;;;;;;;;;;143731;587;46011;-58
2021/12/07 16:03:22;;;;;;;5.18;3.45;;;;;;;;;;143728;594;47020;-57
2021/12/07 16:05:58;;;;;;;4.53;2.87;;;;;;;;;;143726;565;47010;-59
2021/12/07 16:08:33;;;;;;;4.25;2.75;;;;;;;;;;143728;634;46012;-58
2021/12/07 16:11:09;;;;;;;4.90;2.87;;;;;;;;;;143728;575;46020;-58
2021/12/07 16:13:39;;;;;;;3.20;2.90;;;;;;;;;;143729;563;47020;-59
2021/12/07 16:16:13;;;;;;;3.03;2.55;;;;;;;;;;143726;572;47010;-58
2021/12/07 16:18:42;;;;;;;3.17;2.87;;;;;;;;;;143728;680;45906;-58
2021/12/07 16:21:10;;;;;;;3.25;2.58;;;;;;;;;;143727;576;47020;-59
2021/12/07 16:23:41;;;;;;;3.67;3.05;;;;;;;;;;143725;588;47022;-59
2021/12/07 16:26:09;;;;;;;3.92;2.50;;;;;;;;;;143726;595;47010;-58
2021/12/07 16:28:44;;;;;;;3.15;2.35;;;;;;;;;;143728;573;46020;-59
2021/12/07 16:31:12;;;;;;;2.97;2.65;;;;;;;;;;143730;576;46010;-58
2021/12/07 16:33:41;;;;;;;3.22;2.55;;;;;;;;;;143724;591;47020;-58
2021/12/07 16:36:09;;;;;;;4.40;2.90;;;;;;;;;;143724;609;47010;-59
2021/12/07 16:38:36;;;;;;;3.90;2.60;;;;;;;;;;143728;600;45021;-59
2021/12/07 16:41:04;;;;;;;4.97;3.10;;;;;;;;;;143727;596;46020;-59
2021/12/07 16:43:31;;;;;;;5.30;3.20;;;;;;;;;;143724;657;47022;-59
2021/12/07 16:45:58;;;;;;;5.12;2.87;;;;;;;;;;143725;577;47010;-58